createdAt,value
2018-05-27T00:02:26.121Z,94.90
2018-05-27T00:04:53.669Z,95.20
2018-05-27T00:07:21.188Z,96.40
2018-05-27T00:09:49.697Z,95.90
2018-05-27T00:12:17.357Z,95.90
2018-05-27T00:14:44.900Z,96.40
2018-05-27T00:17:13.407Z,97.20
2018-05-27T00:19:40.925Z,97.20
2018-05-27T00:22:09.397Z,97.10
2018-05-27T00:24:36.932Z,97.10
2018-05-27T00:27:04.612Z,96.20
2018-05-27T00:29:32.312Z,95.70
2018-05-27T00:31:59.857Z,95.10
2018-05-27T00:34:27.380Z,95.10
2018-05-27T00:36:55.031Z,95.80
2018-05-27T00:39:22.548Z,96.70
2018-05-27T00:41:50.421Z,97.30
2018-05-27T00:44:17.941Z,96.40
2018-05-27T00:46:46.431Z,98.10
2018-05-27T00:49:13.990Z,98.10
2018-05-27T00:51:42.282Z,98.10
2018-05-27T00:54:09.829Z,98.00
2018-05-27T00:56:37.349Z,98.40
2018-05-27T00:59:04.916Z,98.50
2018-05-27T01:01:32.525Z,99.30
2018-05-27T01:04:00.068Z,99.30
2018-05-27T01:06:27.572Z,99.50
2018-05-27T01:08:55.130Z,99.10
2018-05-27T01:11:22.668Z,99.80
2018-05-27T01:13:50.349Z,99.50
2018-05-27T01:16:17.864Z,98.80
2018-05-27T01:18:45.398Z,98.60
2018-05-27T01:21:13.809Z,99.60
2018-05-27T01:23:41.391Z,99.50
2018-05-27T01:26:08.933Z,99.20
2018-05-27T01:28:36.457Z,99.10
2018-05-27T01:31:03.998Z,99.10
2018-05-27T01:33:32.325Z,99.10
2018-05-27T01:36:00.141Z,99.10
2018-05-27T01:38:28.557Z,99.80
2018-05-27T01:40:56.097Z,99.70
2018-05-27T01:43:23.627Z,98.80
2018-05-27T01:45:51.342Z,98.70
2018-05-27T01:48:18.969Z,98.20
2018-05-27T01:50:46.560Z,97.80
2018-05-27T01:53:14.145Z,97.90
2018-05-27T01:55:41.881Z,99.00
2018-05-27T01:58:09.432Z,99.50
2018-05-27T02:00:36.994Z,99.90
2018-05-27T02:03:04.512Z,99.90
2018-05-27T02:05:33.028Z,99.90
2018-05-27T02:08:00.580Z,99.90
2018-05-27T02:10:28.144Z,99.90
2018-05-27T02:12:55.764Z,99.70
2018-05-27T02:15:24.061Z,99.50
2018-05-27T02:17:51.741Z,99.50
2018-05-27T02:20:19.299Z,99.90
2018-05-27T02:22:46.820Z,99.30
2018-05-27T02:25:15.121Z,98.50
2018-05-27T02:27:42.689Z,98.50
2018-05-27T02:30:10.193Z,98.90
2018-05-27T02:32:37.741Z,99.70
2018-05-27T02:35:05.366Z,99.90
2018-05-27T02:37:32.896Z,99.90
2018-05-27T02:40:00.481Z,99.90
2018-05-27T02:42:28.021Z,99.50
2018-05-27T02:44:55.646Z,98.60
2018-05-27T02:47:23.212Z,99.80
2018-05-27T02:49:50.816Z,98.90
2018-05-27T02:52:18.318Z,97.90
2018-05-27T02:54:45.992Z,97.80
2018-05-27T02:57:14.428Z,99.50
2018-05-27T02:59:41.999Z,99.50
2018-05-27T03:02:09.524Z,99.50
2018-05-27T03:04:37.057Z,99.10
2018-05-27T03:07:05.393Z,99.20
2018-05-27T03:09:33.022Z,99.20
2018-05-27T03:12:00.538Z,98.50
2018-05-27T03:14:28.816Z,98.10
2018-05-27T03:16:57.126Z,98.30
2018-05-27T03:19:24.644Z,98.20
2018-05-27T03:21:53.064Z,99.20
2018-05-27T03:24:20.630Z,99.20
2018-05-27T03:26:48.185Z,99.40
2018-05-27T03:29:15.710Z,99.90
2018-05-27T03:31:44.164Z,99.80
2018-05-27T03:34:11.700Z,99.80
2018-05-27T03:36:39.261Z,99.90
2018-05-27T03:39:06.778Z,99.70
2018-05-27T03:41:34.480Z,98.80
2018-05-27T03:44:02.001Z,98.60
2018-05-27T03:46:29.537Z,99.10
2018-05-27T03:48:57.819Z,99.90
2018-05-27T03:51:25.362Z,99.80
2018-05-27T03:53:53.713Z,99.90
2018-05-27T03:56:21.245Z,99.90
2018-05-27T03:58:48.837Z,99.10
2018-05-27T04:01:16.439Z,98.50
2018-05-27T04:03:44.061Z,99.50
2018-05-27T04:06:23.449Z,99.70
2018-05-27T04:08:51.038Z,99.90
2018-05-27T04:11:18.623Z,99.90
2018-05-27T04:13:46.939Z,99.30
2018-05-27T04:16:14.700Z,99.30
2018-05-27T04:18:42.280Z,98.70
2018-05-27T04:21:09.873Z,98.50
2018-05-27T04:23:37.557Z,98.60
2018-05-27T04:26:05.977Z,99.20
2018-05-27T04:28:33.630Z,99.20
2018-05-27T04:31:01.862Z,98.70
2018-05-27T04:33:30.170Z,99.80
2018-05-27T04:35:57.721Z,99.50
2018-05-27T04:38:25.272Z,99.50
2018-05-27T04:40:52.828Z,99.90
2018-05-27T04:43:20.340Z,99.90
2018-05-27T04:45:47.883Z,99.90
2018-05-27T04:48:15.416Z,99.90
2018-05-27T04:50:43.001Z,99.90
2018-05-27T04:53:10.530Z,99.90
2018-05-27T04:55:38.202Z,99.90
2018-05-27T04:58:05.743Z,99.90
2018-05-27T05:00:33.283Z,99.90
2018-05-27T05:03:01.585Z,99.90
2018-05-27T05:05:29.242Z,99.90
2018-05-27T05:07:56.769Z,98.90
2018-05-27T05:10:25.057Z,98.50
2018-05-27T05:12:52.632Z,98.50
2018-05-27T05:15:20.255Z,98.80
2018-05-27T05:17:48.569Z,99.20
2018-05-27T05:20:16.146Z,99.20
2018-05-27T05:22:43.697Z,99.90
2018-05-27T05:25:11.243Z,99.90
2018-05-27T05:27:38.802Z,99.70
2018-05-27T05:30:06.487Z,99.90
2018-05-27T05:32:34.032Z,99.80
2018-05-27T05:35:01.681Z,99.90
2018-05-27T05:37:29.188Z,99.90
2018-05-27T05:39:58.336Z,99.00
2018-05-27T05:42:25.847Z,99.00
2018-05-27T05:44:54.227Z,97.80
2018-05-27T05:47:22.507Z,98.30
2018-05-27T05:49:50.845Z,98.10
2018-05-27T05:52:18.582Z,98.10
2018-05-27T05:54:46.141Z,97.90
2018-05-27T05:57:13.738Z,98.80
2018-05-27T05:59:41.293Z,98.50
2018-05-27T06:02:08.929Z,97.50
2018-05-27T06:04:36.483Z,97.40
2018-05-27T06:07:04.046Z,98.20
2018-05-27T06:09:31.612Z,97.40
2018-05-27T06:11:59.251Z,97.50
2018-05-27T06:14:26.833Z,97.80
2018-05-27T06:16:54.474Z,98.70
2018-05-27T06:19:21.974Z,96.90
2018-05-27T06:21:49.520Z,96.30
2018-05-27T06:24:17.192Z,95.90
2018-05-27T06:26:44.789Z,95.30
2018-05-27T06:29:12.372Z,95.30
2018-05-27T06:31:39.977Z,95.10
2018-05-27T06:34:08.400Z,95.80
2018-05-27T06:36:35.976Z,95.50
2018-05-27T06:39:03.727Z,95.10
2018-05-27T06:41:31.299Z,95.00
2018-05-27T06:43:59.047Z,94.50
2018-05-27T06:46:26.560Z,94.70
2018-05-27T06:48:54.977Z,93.90
2018-05-27T06:51:22.488Z,93.90
2018-05-27T06:53:50.129Z,94.20
2018-05-27T06:56:17.860Z,93.30
2018-05-27T06:58:45.485Z,93.40
2018-05-27T07:01:13.774Z,92.70
2018-05-27T07:03:41.354Z,92.60
2018-05-27T07:06:08.908Z,91.60
2018-05-27T07:08:36.444Z,92.10
2018-05-27T07:11:04.721Z,90.80
2018-05-27T07:13:32.264Z,90.80
2018-05-27T07:16:00.594Z,90.50
2018-05-27T07:18:28.245Z,90.50
2018-05-27T07:20:55.815Z,87.60
2018-05-27T07:23:23.356Z,85.90
2018-05-27T07:25:50.921Z,89.60
2018-05-27T07:28:18.489Z,84.30
2018-05-27T07:30:46.080Z,83.20
2018-05-27T07:33:13.685Z,81.70
2018-05-27T07:35:41.244Z,81.00
2018-05-27T07:38:08.907Z,75.10
2018-05-27T07:40:36.459Z,72.20
2018-05-27T07:43:04.101Z,72.00
2018-05-27T07:45:31.721Z,75.80
2018-05-27T07:47:59.254Z,72.70
2018-05-27T07:50:26.907Z,70.80
2018-05-27T07:52:54.514Z,68.50
2018-05-27T07:55:22.089Z,69.70
2018-05-27T07:57:50.480Z,71.20
2018-05-27T08:00:18.777Z,73.50
2018-05-27T08:02:46.341Z,73.30
2018-05-27T08:05:13.938Z,72.30
2018-05-27T08:07:41.475Z,70.90
2018-05-27T08:10:09.105Z,70.70
2018-05-27T08:12:36.696Z,63.00
2018-05-27T08:15:04.277Z,65.80
2018-05-27T08:17:31.806Z,63.60
2018-05-27T08:19:59.384Z,62.80
2018-05-27T08:22:26.916Z,63.80
2018-05-27T08:24:54.480Z,62.00
2018-05-27T08:27:21.997Z,66.00
2018-05-27T08:29:49.559Z,66.00
2018-05-27T08:32:17.081Z,65.00
2018-05-27T08:34:45.421Z,64.70
2018-05-27T08:37:12.955Z,64.10
2018-05-27T08:39:40.484Z,61.80
2018-05-27T08:42:08.794Z,62.50
2018-05-27T08:44:36.324Z,62.20
2018-05-27T08:47:04.739Z,59.90
2018-05-27T08:49:32.276Z,59.80
2018-05-27T08:51:59.835Z,56.50
2018-05-27T08:54:27.398Z,58.00
2018-05-27T08:56:54.927Z,56.90
2018-05-27T08:59:23.340Z,58.90
2018-05-27T09:01:50.869Z,58.90
2018-05-27T09:04:19.247Z,56.30
2018-05-27T09:06:47.651Z,57.80
2018-05-27T09:09:15.517Z,57.70
2018-05-27T09:11:43.184Z,55.90
2018-05-27T09:14:10.833Z,59.50
2018-05-27T09:16:38.416Z,56.80
2018-05-27T09:19:05.945Z,57.60
2018-05-27T09:21:33.488Z,55.60
2018-05-27T09:24:01.060Z,54.80
2018-05-27T09:26:28.628Z,57.00
2018-05-27T09:28:56.390Z,56.60
2018-05-27T09:31:23.945Z,58.60
2018-05-27T09:33:51.464Z,59.20
2018-05-27T09:36:19.789Z,57.80
2018-05-27T09:38:47.441Z,57.70
2018-05-27T09:41:15.154Z,59.60
2018-05-27T09:43:43.657Z,58.70
2018-05-27T09:46:11.349Z,58.50
2018-05-27T09:48:38.917Z,57.10
2018-05-27T09:51:06.572Z,57.80
2018-05-27T09:53:34.132Z,54.10
2018-05-27T09:56:01.697Z,54.30
2018-05-27T09:58:29.315Z,52.20
2018-05-27T10:00:57.824Z,55.50
2018-05-27T10:03:25.357Z,55.40
2018-05-27T10:05:52.888Z,56.60
2018-05-27T10:08:21.200Z,53.90
2018-05-27T11:39:05.848Z,46.30
2018-05-27T11:41:33.373Z,46.40
2018-05-27T11:44:00.905Z,49.60
2018-05-27T11:46:28.460Z,48.00
2018-05-27T11:48:56.680Z,47.20
2018-05-27T11:51:24.381Z,47.00
2018-05-27T11:53:52.723Z,46.70
2018-05-27T11:56:20.293Z,46.60
2018-05-27T11:58:47.857Z,48.30
2018-05-27T12:01:15.565Z,48.60
2018-05-27T12:03:43.110Z,50.50
2018-05-27T12:06:10.677Z,48.30
2018-05-27T12:08:38.207Z,48.70
2018-05-27T12:11:06.554Z,50.70
2018-05-27T12:13:34.135Z,50.70
2018-05-27T12:16:01.722Z,52.50
2018-05-27T12:18:29.217Z,51.20
2018-05-27T12:20:56.765Z,52.30
2018-05-27T12:23:24.324Z,52.40
2018-05-27T12:25:51.895Z,52.40
2018-05-27T12:28:19.410Z,53.20
2018-05-27T12:30:46.987Z,52.40
2018-05-27T12:33:14.539Z,53.50
2018-05-27T12:35:42.107Z,54.80
2018-05-27T12:38:09.665Z,54.20
2018-05-27T12:40:37.219Z,52.10
2018-05-27T12:43:04.841Z,52.60
2018-05-27T12:45:33.233Z,54.00
2018-05-27T12:48:00.876Z,54.00
2018-05-27T12:50:28.476Z,54.10
2018-05-27T12:52:56.095Z,53.20
2018-05-27T12:55:24.394Z,55.60
2018-05-27T12:57:52.074Z,55.70
2018-05-27T13:00:19.631Z,55.40
2018-05-27T13:02:47.351Z,56.30
2018-05-27T13:05:14.927Z,55.10
2018-05-27T13:07:42.510Z,56.10
2018-05-27T13:10:10.274Z,56.20
2018-05-27T13:12:37.831Z,56.00
2018-05-27T13:15:05.437Z,57.60
2018-05-27T13:17:33.052Z,58.40
2018-05-27T13:20:00.618Z,57.70
2018-05-27T13:22:28.236Z,57.80
2018-05-27T13:24:56.578Z,58.40
2018-05-27T13:27:24.204Z,58.30
2018-05-27T13:29:51.826Z,58.20
2018-05-27T13:32:20.118Z,58.90
2018-05-27T13:34:47.705Z,59.00
2018-05-27T13:37:15.359Z,56.60
2018-05-27T13:39:42.917Z,57.10
2018-05-27T13:42:10.688Z,57.40
2018-05-27T13:44:38.421Z,56.40
2018-05-27T13:47:05.949Z,57.80
2018-05-27T13:49:33.654Z,58.10
2018-05-27T13:52:01.200Z,58.00
2018-05-27T13:54:28.885Z,57.60
2018-05-27T13:56:56.439Z,57.40
2018-05-27T13:59:23.957Z,57.10
2018-05-27T14:01:52.445Z,58.30
2018-05-27T14:04:20.866Z,59.50
2018-05-27T14:06:48.541Z,59.50
2018-05-27T14:09:16.175Z,58.90
2018-05-27T14:11:43.834Z,59.70
2018-05-27T14:14:11.358Z,61.20
2018-05-27T14:16:39.648Z,63.80
2018-05-27T14:19:07.959Z,64.80
2018-05-27T14:21:35.502Z,64.80
2018-05-27T14:24:03.060Z,65.70
2018-05-27T14:26:30.618Z,67.20
2018-05-27T14:28:58.163Z,67.60
2018-05-27T14:31:25.722Z,67.30
2018-05-27T14:33:53.286Z,67.70
2018-05-27T14:36:20.953Z,68.60
2018-05-27T14:38:48.531Z,67.90
2018-05-27T14:41:16.040Z,67.00
2018-05-27T14:43:44.352Z,65.60
2018-05-27T14:46:12.037Z,65.50
2018-05-27T14:48:39.561Z,67.70
2018-05-27T14:51:07.237Z,67.00
2018-05-27T14:53:34.780Z,66.40
2018-05-27T14:56:02.308Z,68.30
2018-05-27T14:58:30.611Z,68.90
2018-05-27T15:00:58.193Z,69.00
2018-05-27T15:03:25.738Z,69.50
2018-05-27T15:05:53.314Z,70.60
2018-05-27T15:08:20.916Z,71.20
2018-05-27T15:10:49.245Z,70.60
2018-05-27T15:13:16.804Z,70.70
2018-05-27T15:15:44.380Z,73.10
2018-05-27T15:18:11.904Z,73.40
2018-05-27T15:20:39.480Z,71.00
2018-05-27T15:23:07.001Z,71.20
2018-05-27T15:25:34.570Z,71.10
2018-05-27T15:28:02.129Z,71.80
2018-05-27T15:30:29.691Z,70.50
2018-05-27T15:32:57.360Z,70.50
2018-05-27T15:35:24.924Z,71.00
2018-05-27T15:37:52.470Z,69.90
2018-05-27T15:40:20.057Z,68.80
2018-05-27T15:42:47.602Z,70.40
2018-05-27T15:45:15.138Z,70.70
2018-05-27T15:47:42.778Z,70.30
2018-05-27T15:50:10.329Z,67.70
2018-05-27T15:52:38.614Z,69.70
2018-05-27T15:55:06.191Z,68.90
2018-05-27T15:57:33.744Z,70.20
2018-05-27T16:00:01.329Z,70.50
2018-05-27T16:02:29.987Z,69.80
2018-05-27T16:04:57.754Z,71.40
2018-05-27T16:07:25.313Z,71.70
2018-05-27T16:09:52.912Z,72.90
2018-05-27T16:12:20.558Z,67.60
2018-05-27T16:14:48.192Z,66.00
2018-05-27T16:17:15.770Z,69.10
2018-05-27T16:19:43.445Z,66.70
2018-05-27T16:22:11.012Z,66.60
2018-05-27T16:24:38.673Z,61.70
2018-05-27T16:27:06.309Z,59.40
2018-05-27T16:29:33.872Z,61.20
2018-05-27T16:32:01.460Z,60.00
2018-05-27T16:34:29.842Z,62.50
2018-05-27T16:36:58.160Z,61.50
2018-05-27T16:39:25.713Z,61.50
2018-05-27T16:41:53.365Z,60.40
2018-05-27T16:44:20.883Z,59.80
2018-05-27T16:46:48.419Z,59.60
2018-05-27T16:49:15.998Z,60.00
2018-05-27T16:51:43.517Z,60.30
2018-05-27T16:54:11.081Z,59.90
2018-05-27T16:56:38.636Z,60.00
2018-05-27T16:59:06.307Z,60.60
2018-05-27T17:01:33.789Z,62.10
2018-05-27T17:04:01.346Z,63.50
2018-05-27T17:06:28.901Z,62.20
2018-05-27T17:08:56.416Z,62.00
2018-05-27T17:11:23.985Z,62.30
2018-05-27T17:13:51.634Z,63.80
2018-05-27T17:16:19.202Z,65.60
2018-05-27T17:18:46.720Z,62.70
2018-05-27T17:21:15.051Z,65.90
2018-05-27T17:23:43.034Z,65.70
2018-05-27T17:26:10.586Z,66.20
2018-05-27T17:28:38.128Z,66.00
2018-05-27T17:31:05.705Z,64.30
2018-05-27T17:33:33.374Z,64.80
2018-05-27T17:36:00.996Z,66.60
2018-05-27T17:38:28.521Z,65.20
2018-05-27T17:40:56.859Z,67.20
2018-05-27T17:43:24.410Z,67.20
2018-05-27T17:45:51.929Z,69.00
2018-05-27T17:48:19.521Z,67.30
2018-05-27T17:50:47.062Z,67.70
2018-05-27T17:53:14.637Z,68.80
2018-05-27T17:55:42.252Z,68.10
2018-05-27T17:58:09.802Z,69.90
2018-05-27T18:00:38.313Z,70.50
2018-05-27T18:03:05.873Z,70.60
2018-05-27T18:05:33.532Z,68.90
2018-05-27T18:08:01.093Z,68.60
2018-05-27T18:10:28.620Z,68.20
2018-05-27T18:12:56.317Z,70.10
2018-05-27T18:15:23.876Z,69.90
2018-05-27T18:17:51.569Z,70.80
2018-05-27T18:20:19.306Z,71.00
2018-05-27T18:22:46.948Z,69.60
2018-05-27T18:25:14.503Z,69.90
2018-05-27T18:27:42.025Z,69.50
2018-05-27T18:30:10.440Z,70.50
2018-05-27T18:32:38.010Z,70.30
2018-05-27T18:35:05.565Z,71.00
2018-05-27T18:37:33.115Z,70.60
2018-05-27T18:40:00.641Z,70.70
2018-05-27T18:42:28.942Z,72.70
2018-05-27T18:44:56.507Z,72.60
2018-05-27T18:47:24.031Z,71.80
2018-05-27T18:49:52.387Z,71.70
2018-05-27T18:52:19.969Z,71.70
2018-05-27T18:54:48.393Z,70.80
2018-05-27T18:57:15.939Z,70.70
2018-05-27T18:59:43.494Z,70.30
2018-05-27T19:02:11.155Z,69.70
2018-05-27T19:04:38.688Z,70.40
2018-05-27T19:07:07.196Z,72.50
2018-05-27T19:09:34.789Z,72.40
2018-05-27T19:12:02.469Z,73.20
2018-05-27T19:14:30.874Z,75.10
2018-05-27T19:16:59.211Z,75.40
2018-05-27T19:19:26.736Z,75.20
2018-05-27T19:21:54.286Z,75.70
2018-05-27T19:24:21.821Z,78.20
2018-05-27T19:26:49.369Z,78.00
2018-05-27T19:29:17.675Z,79.40
2018-05-27T19:31:45.222Z,79.40
2018-05-27T19:34:12.722Z,80.30
2018-05-27T19:36:40.348Z,79.80
2018-05-27T19:39:08.013Z,80.00
2018-05-27T19:41:35.553Z,81.30
2018-05-27T19:44:03.186Z,82.70
2018-05-27T19:46:30.690Z,84.60
2018-05-27T19:48:58.246Z,85.60
2018-05-27T19:51:25.903Z,85.80
2018-05-27T19:53:53.473Z,83.80
2018-05-27T19:56:21.021Z,83.40
2018-05-27T19:58:48.574Z,83.40
2018-05-27T20:01:16.345Z,81.80
2018-05-27T20:03:43.894Z,81.80
2018-05-27T20:06:11.459Z,80.90
2018-05-27T20:08:38.995Z,82.00
2018-05-27T20:11:06.560Z,82.80
2018-05-27T20:13:34.231Z,82.40
2018-05-27T20:16:01.842Z,82.80
2018-05-27T20:18:29.378Z,84.70
2018-05-27T20:20:57.027Z,83.10
2018-05-27T20:23:24.589Z,83.50
2018-05-27T20:25:52.220Z,84.80
2018-05-27T20:28:19.888Z,85.60
2018-05-27T20:30:47.511Z,86.30
2018-05-27T20:33:15.012Z,87.90
2018-05-27T20:35:42.521Z,90.00
2018-05-27T20:38:10.949Z,87.50
2018-05-27T20:40:38.677Z,87.40
2018-05-27T20:43:06.259Z,86.20
2018-05-27T20:45:34.017Z,85.80
2018-05-27T20:48:01.566Z,85.60
2018-05-27T20:50:29.117Z,85.20
2018-05-27T20:52:56.685Z,85.40
2018-05-27T20:55:24.217Z,87.10
2018-05-27T20:57:52.518Z,90.10
2018-05-27T21:00:20.064Z,90.00
2018-05-27T21:02:47.708Z,89.40
2018-05-27T21:05:16.023Z,90.10
2018-05-27T21:07:43.565Z,90.10
2018-05-27T21:10:11.124Z,90.20
2018-05-27T21:12:38.656Z,87.40
2018-05-27T21:15:07.076Z,88.90
2018-05-27T21:17:34.616Z,88.90
2018-05-27T21:20:02.295Z,90.20
2018-05-27T21:22:29.837Z,90.60
2018-05-27T21:24:58.160Z,92.10
2018-05-27T21:27:25.689Z,92.10
2018-05-27T21:29:53.221Z,90.90
2018-05-27T21:32:20.768Z,90.70
2018-05-27T21:34:49.104Z,90.30
2018-05-27T21:37:16.641Z,90.30
2018-05-27T21:39:44.174Z,90.40
2018-05-27T21:42:11.879Z,90.00
2018-05-27T21:44:39.464Z,90.10
2018-05-27T21:47:07.160Z,90.40
2018-05-27T21:49:34.735Z,91.20
2018-05-27T21:52:02.332Z,91.10
2018-05-27T21:54:29.880Z,90.80
2018-05-27T21:56:57.509Z,90.80
2018-05-27T21:59:25.192Z,90.80
2018-05-27T22:01:52.737Z,91.40
2018-05-27T22:04:20.284Z,91.90
2018-05-27T22:06:47.860Z,92.30
2018-05-27T22:09:15.446Z,92.90
2018-05-27T22:11:43.137Z,93.90
2018-05-27T22:14:11.622Z,93.40
2018-05-27T22:16:39.931Z,93.90
2018-05-27T22:19:07.647Z,93.90
2018-05-27T22:21:35.954Z,94.80
2018-05-27T22:24:03.597Z,94.80
2018-05-27T22:26:31.276Z,94.40
2018-05-27T22:28:58.837Z,94.80
2018-05-27T22:31:26.378Z,95.20
2018-05-27T22:33:54.043Z,95.60
2018-05-27T22:36:21.624Z,95.90
2018-05-27T22:38:49.376Z,96.80
2018-05-27T22:41:16.955Z,96.90
2018-05-27T22:43:44.528Z,97.20
2018-05-27T22:46:12.067Z,97.70
2018-05-27T22:48:39.766Z,98.20
2018-05-27T22:51:07.377Z,97.60
2018-05-27T22:53:35.135Z,97.50
2018-05-27T22:56:02.693Z,97.70
2018-05-27T22:58:30.221Z,97.00
2018-05-27T23:00:58.588Z,97.50
2018-05-27T23:03:26.885Z,97.80
2018-05-27T23:05:54.564Z,97.80
2018-05-27T23:08:22.329Z,97.90
2018-05-27T23:10:49.882Z,97.10
2018-05-27T23:13:17.507Z,96.90
2018-05-27T23:15:46.025Z,97.10
2018-05-27T23:18:13.614Z,97.10
2018-05-27T23:20:41.221Z,97.20
2018-05-27T23:23:09.542Z,97.50
2018-05-27T23:25:37.090Z,97.50
2018-05-27T23:28:04.620Z,97.80
2018-05-27T23:30:32.235Z,98.30
2018-05-27T23:32:59.996Z,99.60
2018-05-27T23:35:27.821Z,99.90
2018-05-27T23:37:55.486Z,99.90
2018-05-27T23:40:23.013Z,99.90
2018-05-27T23:42:51.537Z,99.90
2018-05-27T23:45:19.092Z,99.90
2018-05-27T23:47:46.745Z,99.40
2018-05-27T23:50:14.400Z,99.00
2018-05-27T23:52:42.060Z,98.70
2018-05-27T23:55:09.616Z,98.60
2018-05-27T23:57:37.301Z,99.40
